Time;durP1;ratioP1;P1;durP2;ratioP2;P2;SDS_P1;SDS_P2;PMS_P1;PMS_P2;Temp;Humidity;BMP_temperature;BMP_pressure;BME280_temperature;BME280_humidity;BME280_pressure;Samples;Min_cycle;Max_cycle;Signal;HPM_P1;HPM_P2
2021/01/28 05:02:30;;;;;;;;;;;4.70;99.90;;;;;;5096426;23;19936;-63
2021/01/28 05:04:57;;;;;;;;;;;4.70;99.90;;;;;;5034671;28;20325;-63
2021/01/28 05:07:25;;;;;;;;;;;4.70;99.90;;;;;;5034290;28;20440;-63
2021/01/28 05:10:01;;;;;;;;;;;4.70;99.90;;;;;;5049510;23;19964;-62
2021/01/28 05:12:28;;;;;;;;;;;4.60;99.90;;;;;;5036300;28;20381;-62
2021/01/28 05:15:09;;;;;;;;;;;4.60;99.90;;;;;;5034686;28;20422;-62
2021/01/28 05:17:37;;;;;;;;;;;4.60;99.90;;;;;;5035531;28;19928;-61
2021/01/28 05:20:04;;;;;;;;;;;4.70;99.90;;;;;;5035297;28;20264;-61
2021/01/28 05:22:31;;;;;;;;;;;4.60;99.90;;;;;;5037378;28;19930;-61
2021/01/28 05:24:58;;;;;;;;;;;4.60;99.90;;;;;;5035789;28;19921;-61
2021/01/28 05:27:29;;;;;;;;;;;4.50;99.90;;;;;;5039705;28;19925;-63
2021/01/28 05:29:56;;;;;;;;;;;4.50;99.90;;;;;;5037277;28;19921;-61
2021/01/28 05:32:34;;;;;;;;;;;4.60;99.90;;;;;;5042650;28;20360;-63
2021/01/28 05:35:12;;;;;;;;;;;4.60;99.90;;;;;;5046103;28;20375;-64
2021/01/28 05:37:39;;;;;;;;;;;4.50;99.90;;;;;;5043189;28;19928;-61
2021/01/28 05:40:12;;;;;;;;;;;4.50;99.90;;;;;;5037886;28;19925;-61
2021/01/28 05:42:40;;;;;;;;;;;4.50;99.90;;;;;;5039367;28;19921;-62
2021/01/28 05:45:18;;;;;;;;;;;4.40;99.90;;;;;;5038666;28;19925;-62
2021/01/28 05:47:44;;;;;;;;;;;4.50;99.90;;;;;;5038611;28;19929;-62
2021/01/28 05:50:17;;;;;;;;;;;4.50;99.90;;;;;;5037999;28;19928;-61
2021/01/28 05:52:43;;;;;;;;;;;4.50;99.90;;;;;;5039487;28;19921;-61
2021/01/28 05:55:10;;;;;;;;;;;4.50;99.90;;;;;;5037844;28;19921;-61
2021/01/28 05:57:38;;;;;;;;;;;4.50;99.90;;;;;;5056221;28;19905;-63
2021/01/28 06:00:08;;;;;;;;;;;4.40;99.90;;;;;;5061342;28;19921;-62
2021/01/28 06:02:50;;;;;;;;;;;4.40;99.90;;;;;;5061413;28;19928;-62
2021/01/28 06:05:22;;;;;;;;;;;4.40;99.90;;;;;;5059308;28;20182;-62
2021/01/28 06:08:01;;;;;;;;;;;4.40;99.90;;;;;;5055367;28;19928;-63
2021/01/28 06:10:44;;;;;;;;;;;4.40;99.90;;;;;;5040764;28;19928;-61
2021/01/28 06:13:28;;;;;;;;;;;4.30;99.90;;;;;;5039955;28;19921;-62
2021/01/28 06:15:59;;;;;;;;;;;4.30;99.90;;;;;;5041400;28;19932;-62
2021/01/28 06:18:52;;;;;;;;;;;4.30;99.90;;;;;;5038708;28;19936;-61
2021/01/28 06:21:27;;;;;;;;;;;4.30;99.90;;;;;;5039344;28;19921;-62
2021/01/28 06:24:10;;;;;;;;;;;4.30;99.90;;;;;;5040426;28;19921;-61
2021/01/28 06:26:43;;;;;;;;;;;4.30;99.90;;;;;;5038812;28;19921;-62
2021/01/28 06:29:35;;;;;;;;;;;4.30;99.90;;;;;;5037990;28;20288;-62
2021/01/28 06:32:16;;;;;;;;;;;4.30;99.90;;;;;;5039440;28;19928;-61
2021/01/28 06:34:54;;;;;;;;;;;4.20;99.90;;;;;;5039952;28;19920;-62
2021/01/28 06:37:38;;;;;;;;;;;4.20;99.90;;;;;;5044603;28;19928;-63
2021/01/28 06:40:09;;;;;;;;;;;4.20;99.90;;;;;;5058289;28;19921;-62
2021/01/28 06:42:39;;;;;;;;;;;4.20;99.90;;;;;;5057743;28;19921;-60
2021/01/28 06:45:10;;;;;;;;;;;4.10;99.90;;;;;;5058295;28;19943;-62
2021/01/28 06:47:40;;;;;;;;;;;4.10;99.90;;;;;;5049898;28;19944;-60
2021/01/28 06:50:11;;;;;;;;;;;4.10;99.90;;;;;;5041651;28;19948;-60
2021/01/28 06:52:45;;;;;;;;;;;4.10;99.90;;;;;;5041267;28;19921;-61
2021/01/28 06:55:17;;;;;;;;;;;4.10;99.90;;;;;;5057503;28;19932;-62
2021/01/28 06:57:48;;;;;;;;;;;4.10;99.90;;;;;;5057416;28;19916;-62
2021/01/28 07:00:21;;;;;;;;;;;4.10;99.90;;;;;;5056869;28;19921;-61
2021/01/28 07:02:53;;;;;;;;;;;4.00;99.90;;;;;;5057918;28;19921;-61
2021/01/28 07:05:34;;;;;;;;;;;4.00;99.90;;;;;;5057226;28;19909;-61
2021/01/28 07:08:02;;;;;;;;;;;3.90;99.90;;;;;;5034481;28;20320;-60
2021/01/28 07:10:33;;;;;;;;;;;3.90;99.90;;;;;;5036655;28;19952;-61
2021/01/28 07:13:00;;;;;;;;;;;4.00;99.90;;;;;;5039054;28;19921;-61
2021/01/28 07:15:26;;;;;;;;;;;3.90;99.90;;;;;;5036414;28;19921;-60
2021/01/28 07:17:54;;;;;;;;;;;3.90;99.90;;;;;;5036984;28;19921;-60
2021/01/28 07:20:29;;;;;;;;;;;4.00;99.90;;;;;;5037492;28;19921;-60
2021/01/28 07:23:13;;;;;;;;;;;3.90;99.90;;;;;;5037567;28;19921;-60
2021/01/28 07:25:40;;;;;;;;;;;3.90;99.90;;;;;;5036910;28;19928;-62
2021/01/28 07:28:23;;;;;;;;;;;3.90;99.90;;;;;;5036695;28;19978;-60
2021/01/28 07:30:50;;;;;;;;;;;3.90;99.90;;;;;;5036807;28;19921;-60
2021/01/28 07:33:35;;;;;;;;;;;3.90;99.90;;;;;;5037461;28;19921;-61
2021/01/28 07:36:02;;;;;;;;;;;3.90;99.90;;;;;;5039022;28;19944;-61
2021/01/28 07:38:43;;;;;;;;;;;3.90;99.90;;;;;;5039100;28;19921;-60
2021/01/28 07:41:19;;;;;;;;;;;4.00;99.90;;;;;;5043933;28;19984;-61
2021/01/28 07:43:47;;;;;;;;;;;3.90;99.90;;;;;;5041824;28;20260;-59
2021/01/28 07:46:14;;;;;;;;;;;3.90;99.90;;;;;;5046874;28;19925;-60
2021/01/28 07:48:41;;;;;;;;;;;4.00;99.90;;;;;;5040334;28;19921;-61
2021/01/28 07:51:25;;;;;;;;;;;4.00;99.90;;;;;;5036233;28;19961;-60
2021/01/28 07:53:51;;;;;;;;;;;4.00;99.90;;;;;;5040429;28;20020;-61
2021/01/28 07:56:36;;;;;;;;;;;4.10;99.90;;;;;;5037572;28;19921;-60
2021/01/28 07:59:04;;;;;;;;;;;4.10;99.90;;;;;;5037089;28;19921;-60
2021/01/28 08:01:30;;;;;;;;;;;4.10;99.90;;;;;;5035797;28;20376;-59
2021/01/28 08:04:01;;;;;;;;;;;4.20;99.90;;;;;;5036980;28;19921;-62
2021/01/28 08:06:28;;;;;;;;;;;4.20;99.90;;;;;;5036492;28;19928;-62
2021/01/28 08:09:09;;;;;;;;;;;4.30;99.90;;;;;;5036539;28;20324;-61
2021/01/28 08:11:35;;;;;;;;;;;4.30;99.90;;;;;;5034134;28;19924;-60
2021/01/28 08:14:01;;;;;;;;;;;4.40;99.90;;;;;;5037588;28;20432;-60
2021/01/28 08:16:29;;;;;;;;;;;4.30;99.90;;;;;;5037262;28;19921;-60
2021/01/28 08:19:03;;;;;;;;;;;4.30;99.90;;;;;;5035242;28;19921;-60
2021/01/28 08:21:29;;;;;;;;;;;4.30;99.90;;;;;;5037494;28;20392;-60
2021/01/28 08:23:56;;;;;;;;;;;4.30;99.90;;;;;;5039265;28;20427;-60
2021/01/28 08:26:23;;;;;;;;;;;4.30;99.90;;;;;;5038897;28;19928;-61
2021/01/28 08:29:02;;;;;;;;;;;4.40;99.90;;;;;;5036438;28;20391;-61
2021/01/28 08:31:35;;;;;;;;;;;4.40;99.90;;;;;;5036901;28;19924;-59
2021/01/28 08:34:02;;;;;;;;;;;4.50;99.90;;;;;;5039651;28;20360;-61
2021/01/28 08:36:31;;;;;;;;;;;4.60;99.90;;;;;;5037147;28;19976;-61
2021/01/28 08:39:08;;;;;;;;;;;4.60;99.90;;;;;;5035533;28;19921;-61
2021/01/28 08:41:34;;;;;;;;;;;4.80;99.90;;;;;;5035499;28;19925;-61
2021/01/28 08:44:02;;;;;;;;;;;5.00;99.90;;;;;;5038278;28;19943;-60
2021/01/28 08:46:28;;;;;;;;;;;4.90;99.90;;;;;;5036742;28;19921;-62
2021/01/28 08:49:03;;;;;;;;;;;4.80;99.90;;;;;;5036729;28;19925;-60
2021/01/28 08:51:30;;;;;;;;;;;4.80;99.90;;;;;;5038338;28;19928;-61
2021/01/28 08:53:58;;;;;;;;;;;4.70;99.90;;;;;;5036725;28;19921;-62
2021/01/28 08:56:25;;;;;;;;;;;4.60;99.90;;;;;;5036105;28;19921;-60
2021/01/28 08:58:51;;;;;;;;;;;4.70;99.90;;;;;;5036493;28;19933;-61
2021/01/28 09:01:17;;;;;;;;;;;4.70;99.90;;;;;;5035500;28;19928;-61
2021/01/28 09:03:51;;;;;;;;;;;4.70;99.90;;;;;;5035673;28;19975;-62
2021/01/28 09:06:18;;;;;;;;;;;4.80;99.90;;;;;;5034691;28;20352;-62
2021/01/28 09:08:45;;;;;;;;;;;4.80;99.90;;;;;;5035307;28;19928;-59
2021/01/28 09:11:15;;;;;;;;;;;4.80;99.90;;;;;;5034862;28;19921;-60
2021/01/28 09:13:41;;;;;;;;;;;4.80;99.90;;;;;;5034347;28;19928;-60
2021/01/28 09:16:12;;;;;;;;;;;4.80;99.90;;;;;;5036495;28;19924;-61
2021/01/28 09:18:39;;;;;;;;;;;4.80;99.90;;;;;;5037859;28;19928;-61
2021/01/28 09:21:07;;;;;;;;;;;4.80;99.90;;;;;;5037704;28;19984;-61
2021/01/28 09:23:33;;;;;;;;;;;4.90;99.90;;;;;;5037472;28;20388;-60
2021/01/28 09:26:10;;;;;;;;;;;4.90;99.90;;;;;;5038120;28;19921;-60
2021/01/28 09:28:36;;;;;;;;;;;4.90;99.90;;;;;;5037891;28;19936;-61
2021/01/28 09:31:17;;;;;;;;;;;5.00;99.90;;;;;;5039406;28;19921;-60
2021/01/28 09:33:44;;;;;;;;;;;5.00;99.90;;;;;;5040912;28;20435;-59
2021/01/28 09:36:13;;;;;;;;;;;5.00;99.90;;;;;;5040106;28;20102;-60
2021/01/28 09:38:41;;;;;;;;;;;5.10;99.90;;;;;;5044476;28;19928;-61
2021/01/28 09:41:09;;;;;;;;;;;5.10;99.90;;;;;;5042452;28;19925;-61
2021/01/28 09:43:35;;;;;;;;;;;5.20;99.90;;;;;;5043337;28;19925;-60
2021/01/28 09:46:22;;;;;;;;;;;5.20;99.90;;;;;;5051312;28;19931;-60
2021/01/28 09:48:49;;;;;;;;;;;5.20;99.90;;;;;;5049011;28;19925;-60
2021/01/28 09:51:19;;;;;;;;;;;5.20;99.90;;;;;;5042495;28;19921;-60
2021/01/28 09:53:58;;;;;;;;;;;5.30;99.90;;;;;;5041774;28;19921;-62
2021/01/28 09:56:24;;;;;;;;;;;5.30;99.90;;;;;;5039873;28;19921;-61
2021/01/28 09:58:50;;;;;;;;;;;5.40;99.90;;;;;;5040989;28;19928;-60
2021/01/28 10:01:16;;;;;;;;;;;5.40;99.90;;;;;;5039191;28;20398;-60
2021/01/28 10:03:42;;;;;;;;;;;5.50;99.90;;;;;;5038945;28;19987;-60
2021/01/28 10:06:08;;;;;;;;;;;5.60;99.90;;;;;;5039836;28;19921;-60
2021/01/28 10:08:34;;;;;;;;;;;5.60;99.90;;;;;;5039595;28;19952;-59
2021/01/28 10:11:01;;;;;;;;;;;5.70;99.90;;;;;;5038936;28;19921;-62
2021/01/28 10:13:27;;;;;;;;;;;5.80;99.90;;;;;;5037110;28;20292;-62
2021/01/28 10:15:53;;;;;;;;;;;5.80;99.90;;;;;;5037146;28;20434;-62
2021/01/28 10:18:19;;;;;;;;;;;5.90;99.90;;;;;;5037782;28;19921;-60
2021/01/28 10:20:45;;;;;;;;;;;5.90;99.90;;;;;;5037649;28;19925;-60
2021/01/28 10:23:11;;;;;;;;;;;6.00;99.90;;;;;;5037431;28;19944;-60
2021/01/28 10:25:37;;;;;;;;;;;6.10;99.90;;;;;;5037816;28;19921;-61
2021/01/28 10:28:04;;;;;;;;;;;6.20;99.90;;;;;;5037289;28;19923;-60
2021/01/28 10:30:30;;;;;;;;;;;6.20;99.90;;;;;;5037680;28;19920;-60
2021/01/28 10:32:57;;;;;;;;;;;6.30;99.90;;;;;;5037710;28;19920;-59
2021/01/28 10:35:25;;;;;;;;;;;6.40;99.90;;;;;;5037655;28;19928;-60
2021/01/28 10:37:51;;;;;;;;;;;6.40;99.90;;;;;;5039054;28;19925;-60
2021/01/28 10:40:18;;;;;;;;;;;6.60;99.90;;;;;;5040207;28;19921;-60
2021/01/28 10:42:45;;;;;;;;;;;6.60;99.90;;;;;;5045020;28;19928;-60
2021/01/28 10:45:14;;;;;;;;;;;6.70;99.90;;;;;;5039599;28;19921;-60
2021/01/28 10:47:40;;;;;;;;;;;6.70;99.90;;;;;;5039732;28;19929;-61
2021/01/28 10:50:07;;;;;;;;;;;6.70;99.90;;;;;;5039405;28;19932;-61
2021/01/28 10:52:33;;;;;;;;;;;6.80;99.90;;;;;;5036561;28;19921;-60
2021/01/28 10:54:59;;;;;;;;;;;6.90;99.90;;;;;;5037770;28;19943;-60
2021/01/28 10:57:25;;;;;;;;;;;6.90;99.90;;;;;;5036725;28;20371;-60
2021/01/28 10:59:51;;;;;;;;;;;6.90;99.90;;;;;;5038215;28;19921;-61
2021/01/28 11:02:18;;;;;;;;;;;7.10;99.90;;;;;;5037324;28;19943;-61
2021/01/28 11:04:44;;;;;;;;;;;7.30;99.90;;;;;;5037816;28;19951;-61
2021/01/28 11:07:10;;;;;;;;;;;7.40;99.90;;;;;;5036565;28;19928;-61
2021/01/28 11:09:36;;;;;;;;;;;7.40;99.90;;;;;;5036045;28;19928;-61
2021/01/28 11:12:04;;;;;;;;;;;7.40;99.90;;;;;;5036001;28;19921;-62
2021/01/28 11:14:30;;;;;;;;;;;7.50;99.90;;;;;;5035961;28;19972;-62
2021/01/28 11:16:56;;;;;;;;;;;7.60;99.90;;;;;;5035766;28;19921;-62
2021/01/28 11:19:23;;;;;;;;;;;7.60;99.90;;;;;;5035890;28;19921;-62
2021/01/28 11:21:49;;;;;;;;;;;7.60;99.90;;;;;;5037014;28;19921;-62
2021/01/28 11:24:15;;;;;;;;;;;7.60;99.90;;;;;;5036394;28;19932;-62
2021/01/28 11:26:41;;;;;;;;;;;7.60;99.90;;;;;;5036332;28;19928;-61
2021/01/28 11:29:07;;;;;;;;;;;7.50;99.90;;;;;;5035863;28;19921;-62
2021/01/28 11:31:34;;;;;;;;;;;7.50;99.90;;;;;;5036122;28;19971;-60
2021/01/28 11:34:02;;;;;;;;;;;7.50;99.90;;;;;;5035449;28;19928;-61
2021/01/28 11:36:28;;;;;;;;;;;7.40;99.90;;;;;;5035735;28;19921;-61
2021/01/28 11:38:54;;;;;;;;;;;7.40;99.90;;;;;;5035206;28;19921;-61
2021/01/28 11:41:20;;;;;;;;;;;7.50;99.90;;;;;;5036045;28;20287;-61
2021/01/28 11:43:47;;;;;;;;;;;7.60;99.90;;;;;;5037015;28;20335;-61
2021/01/28 11:46:13;;;;;;;;;;;7.60;99.90;;;;;;5038244;28;19921;-60
2021/01/28 11:48:39;;;;;;;;;;;7.70;99.90;;;;;;5038358;28;19927;-61
2021/01/28 11:51:05;;;;;;;;;;;7.80;99.90;;;;;;5037308;28;19983;-61
2021/01/28 11:53:32;;;;;;;;;;;7.80;99.90;;;;;;5036578;28;19920;-61
2021/01/28 11:55:58;;;;;;;;;;;7.90;99.90;;;;;;5038144;28;19927;-61
2021/01/28 11:58:24;;;;;;;;;;;7.90;99.90;;;;;;5038427;28;19928;-62
2021/01/28 12:00:51;;;;;;;;;;;7.90;99.90;;;;;;5038307;28;19975;-61
2021/01/28 12:03:17;;;;;;;;;;;7.90;99.90;;;;;;5036403;28;19928;-60
2021/01/28 12:05:43;;;;;;;;;;;8.00;99.90;;;;;;5035870;28;19921;-59
2021/01/28 12:08:09;;;;;;;;;;;8.00;99.90;;;;;;5035257;28;19925;-61
2021/01/28 12:10:36;;;;;;;;;;;8.40;99.90;;;;;;5034901;28;19932;-59
2021/01/28 12:13:02;;;;;;;;;;;8.80;99.90;;;;;;5035671;28;19921;-60
2021/01/28 12:15:28;;;;;;;;;;;9.10;99.90;;;;;;5035012;28;19921;-61
2021/01/28 12:17:54;;;;;;;;;;;9.30;99.90;;;;;;5036325;28;19920;-62
2021/01/28 12:20:23;;;;;;;;;;;9.20;99.90;;;;;;5035702;28;19932;-61
2021/01/28 12:22:49;;;;;;;;;;;9.10;99.90;;;;;;5036868;28;19921;-62
2021/01/28 12:25:15;;;;;;;;;;;9.00;99.90;;;;;;5034956;28;20335;-62
2021/01/28 12:27:42;;;;;;;;;;;8.90;99.90;;;;;;5035716;28;19921;-62
2021/01/28 12:30:10;;;;;;;;;;;8.80;99.90;;;;;;5034962;28;19921;-62
2021/01/28 12:32:37;;;;;;;;;;;8.80;99.90;;;;;;5035261;28;19928;-61
2021/01/28 12:35:04;;;;;;;;;;;8.80;99.90;;;;;;5035748;28;19925;-61
2021/01/28 12:37:30;;;;;;;;;;;8.80;99.90;;;;;;5035873;28;19921;-61
2021/01/28 12:39:56;;;;;;;;;;;8.80;99.90;;;;;;5037525;28;20291;-61
2021/01/28 12:42:25;;;;;;;;;;;8.80;99.90;;;;;;5035494;28;20291;-61
2021/01/28 12:44:52;;;;;;;;;;;8.80;99.90;;;;;;5035811;28;19928;-62
2021/01/28 12:47:18;;;;;;;;;;;8.90;99.90;;;;;;5035217;28;19921;-61
2021/01/28 12:49:44;;;;;;;;;;;8.90;99.90;;;;;;5036732;28;19921;-61
2021/01/28 12:52:10;;;;;;;;;;;8.90;99.90;;;;;;5039324;28;19971;-62
2021/01/28 12:54:36;;;;;;;;;;;8.90;99.90;;;;;;5041252;28;19971;-61
2021/01/28 12:57:02;;;;;;;;;;;9.00;99.90;;;;;;5050584;28;19921;-61
2021/01/28 12:59:28;;;;;;;;;;;8.90;99.90;;;;;;5040191;28;19921;-61
2021/01/28 13:01:55;;;;;;;;;;;8.90;99.90;;;;;;5040160;28;19921;-61
2021/01/28 13:04:21;;;;;;;;;;;9.00;99.90;;;;;;5038901;28;19943;-61
2021/01/28 13:06:47;;;;;;;;;;;9.00;99.90;;;;;;5038827;28;19928;-61
2021/01/28 13:09:13;;;;;;;;;;;9.00;99.90;;;;;;5040602;28;19921;-61
2021/01/28 13:11:39;;;;;;;;;;;9.10;99.90;;;;;;5038790;28;19991;-61
2021/01/28 13:14:05;;;;;;;;;;;9.10;99.90;;;;;;5038850;28;20292;-61
2021/01/28 13:16:31;;;;;;;;;;;9.10;99.90;;;;;;5039453;28;20295;-61
2021/01/28 13:18:58;;;;;;;;;;;9.10;99.90;;;;;;5039236;28;19928;-61
2021/01/28 13:21:24;;;;;;;;;;;9.20;99.90;;;;;;5043015;28;19921;-61
2021/01/28 13:23:50;;;;;;;;;;;9.20;99.90;;;;;;5054533;28;19921;-61
2021/01/28 13:26:18;;;;;;;;;;;9.30;99.90;;;;;;5053122;28;19921;-61
2021/01/28 13:28:44;;;;;;;;;;;9.40;99.90;;;;;;5061408;28;19921;-61
2021/01/28 13:31:10;;;;;;;;;;;9.50;99.90;;;;;;5059780;28;19905;-61
2021/01/28 13:33:36;;;;;;;;;;;9.50;99.90;;;;;;5055791;28;19928;-61
2021/01/28 13:36:03;;;;;;;;;;;9.60;99.90;;;;;;5047860;28;19921;-62
2021/01/28 13:38:30;;;;;;;;;;;9.60;99.90;;;;;;5041812;28;19928;-60
2021/01/28 13:40:56;;;;;;;;;;;9.70;99.90;;;;;;5041701;28;19971;-61
2021/01/28 13:43:22;;;;;;;;;;;9.70;99.90;;;;;;5043116;28;19944;-60
2021/01/28 13:45:48;;;;;;;;;;;9.80;99.90;;;;;;5046700;28;19928;-60
2021/01/28 13:48:14;;;;;;;;;;;9.90;99.90;;;;;;5038772;28;19971;-61
2021/01/28 13:50:40;;;;;;;;;;;10.00;99.90;;;;;;5038849;28;19928;-60
2021/01/28 13:53:08;;;;;;;;;;;10.00;99.90;;;;;;5039107;28;19929;-61
2021/01/28 13:55:34;;;;;;;;;;;10.10;99.90;;;;;;5040056;28;19996;-63
2021/01/28 13:58:00;;;;;;;;;;;10.20;99.90;;;;;;5040712;28;20293;-61
2021/01/28 14:00:26;;;;;;;;;;;10.40;99.90;;;;;;5048886;28;20395;-62
2021/01/28 14:02:52;;;;;;;;;;;10.60;99.90;;;;;;5049686;28;19921;-61
2021/01/28 14:05:20;;;;;;;;;;;10.70;99.90;;;;;;5049095;28;19921;-61
2021/01/28 14:07:46;;;;;;;;;;;10.80;99.90;;;;;;5057197;28;19921;-62
2021/01/28 14:10:15;;;;;;;;;;;10.90;99.90;;;;;;5056063;28;19921;-62
2021/01/28 14:12:41;;;;;;;;;;;11.00;99.90;;;;;;5053868;28;19921;-62
2021/01/28 14:15:08;;;;;;;;;;;11.10;99.90;;;;;;5053278;28;19920;-61
2021/01/28 14:17:35;;;;;;;;;;;11.10;99.90;;;;;;5055078;28;19905;-61
2021/01/28 14:20:01;;;;;;;;;;;11.20;99.90;;;;;;5059668;28;19948;-62
2021/01/28 14:22:27;;;;;;;;;;;11.30;99.90;;;;;;5060012;28;19912;-61
2021/01/28 14:24:53;;;;;;;;;;;11.40;99.90;;;;;;5041947;28;19921;-61
2021/01/28 14:27:20;;;;;;;;;;;11.50;99.90;;;;;;5039720;28;19928;-61
2021/01/28 14:29:46;;;;;;;;;;;11.50;99.90;;;;;;5040651;28;19975;-62
2021/01/28 14:32:12;;;;;;;;;;;11.50;99.90;;;;;;5040456;28;20374;-61
2021/01/28 14:34:38;;;;;;;;;;;11.60;99.90;;;;;;5039453;28;20378;-60
2021/01/28 14:37:04;;;;;;;;;;;11.70;99.90;;;;;;5040870;28;19921;-62
2021/01/28 14:39:30;;;;;;;;;;;11.70;99.90;;;;;;5048550;28;19921;-61
2021/01/28 14:41:57;;;;;;;;;;;11.80;99.90;;;;;;5058481;28;21395;-62
2021/01/28 14:44:24;;;;;;;;;;;11.80;99.90;;;;;;5058902;28;19924;-62
2021/01/28 14:46:51;;;;;;;;;;;11.80;99.90;;;;;;5057476;28;19932;-63
2021/01/28 14:49:17;;;;;;;;;;;11.80;99.90;;;;;;5046086;28;19929;-62
2021/01/28 14:51:43;;;;;;;;;;;11.80;99.90;;;;;;5038240;28;19929;-63
2021/01/28 14:54:09;;;;;;;;;;;11.80;99.90;;;;;;5040541;28;19925;-62
2021/01/28 14:56:36;;;;;;;;;;;11.80;99.90;;;;;;5058209;28;19928;-61
2021/01/28 14:59:02;;;;;;;;;;;11.80;99.90;;;;;;5057805;28;19925;-62
2021/01/28 15:01:32;;;;;;;;;;;11.70;99.90;;;;;;5058739;28;19925;-62
2021/01/28 15:03:58;;;;;;;;;;;11.70;99.90;;;;;;5058372;28;20062;-61
2021/01/28 15:06:26;;;;;;;;;;;11.60;99.90;;;;;;5057779;28;19925;-61
2021/01/28 15:08:52;;;;;;;;;;;11.60;99.90;;;;;;5043203;28;19973;-61
2021/01/28 15:11:18;;;;;;;;;;;11.60;99.90;;;;;;5037115;28;19926;-61
2021/01/28 15:13:44;;;;;;;;;;;11.60;99.90;;;;;;5035609;28;19975;-62
2021/01/28 15:16:10;;;;;;;;;;;11.60;99.90;;;;;;5036006;28;19932;-62
2021/01/28 15:18:37;;;;;;;;;;;11.60;99.90;;;;;;5037357;28;19925;-62
2021/01/28 15:21:03;;;;;;;;;;;11.50;99.90;;;;;;5037128;28;19925;-62
2021/01/28 15:23:29;;;;;;;;;;;11.60;99.90;;;;;;5037613;28;19932;-62
2021/01/28 15:25:55;;;;;;;;;;;11.60;99.90;;;;;;5037562;28;19929;-62
2021/01/28 15:28:21;;;;;;;;;;;11.50;99.90;;;;;;5036833;28;19987;-62
2021/01/28 15:30:47;;;;;;;;;;;11.50;99.90;;;;;;5037055;28;19932;-62
2021/01/28 15:33:13;;;;;;;;;;;11.60;99.90;;;;;;5037062;28;19933;-62
2021/01/28 15:35:40;;;;;;;;;;;11.50;99.90;;;;;;5036808;28;19932;-61
2021/01/28 15:38:06;;;;;;;;;;;11.50;99.90;;;;;;5036680;28;19929;-61
2021/01/28 15:40:32;;;;;;;;;;;11.50;99.90;;;;;;5036514;28;19932;-61
2021/01/28 15:42:58;;;;;;;;;;;11.50;99.90;;;;;;5036638;28;19929;-63
2021/01/28 15:45:24;;;;;;;;;;;11.50;99.90;;;;;;5035961;28;19925;-61
2021/01/28 15:47:50;;;;;;;;;;;11.50;99.90;;;;;;5036301;28;19925;-61
2021/01/28 15:50:17;;;;;;;;;;;11.50;99.90;;;;;;5036074;28;19932;-61
2021/01/28 15:52:44;;;;;;;;;;;11.50;99.90;;;;;;5036416;28;19925;-61
2021/01/28 15:55:11;;;;;;;;;;;11.50;99.90;;;;;;5036536;28;19926;-60
2021/01/28 15:57:38;;;;;;;;;;;11.50;99.90;;;;;;5036828;28;19925;-61
2021/01/28 16:00:04;;;;;;;;;;;11.50;99.90;;;;;;5036026;28;20361;-61
2021/01/28 16:02:30;;;;;;;;;;;11.50;99.90;;;;;;5038915;28;19932;-61
2021/01/28 16:04:56;;;;;;;;;;;11.60;99.90;;;;;;5038561;28;19929;-61
2021/01/28 16:07:23;;;;;;;;;;;11.50;99.90;;;;;;5038265;28;19979;-61
2021/01/28 16:09:49;;;;;;;;;;;11.60;99.90;;;;;;5038376;28;20016;-61
2021/01/28 16:12:15;;;;;;;;;;;11.50;99.90;;;;;;5037244;28;19937;-61
2021/01/28 16:14:41;;;;;;;;;;;11.60;99.90;;;;;;5036718;28;20311;-61
2021/01/28 16:17:09;;;;;;;;;;;11.50;99.90;;;;;;5037479;28;19933;-60
2021/01/28 16:19:35;;;;;;;;;;;11.50;99.90;;;;;;5035583;28;19929;-61
2021/01/28 16:22:01;;;;;;;;;;;11.50;99.90;;;;;;5037157;28;19957;-61
2021/01/28 16:24:27;;;;;;;;;;;11.40;99.90;;;;;;5035804;28;19925;-61
2021/01/28 16:26:55;;;;;;;;;;;11.40;99.90;;;;;;5037285;28;19925;-63
2021/01/28 16:29:21;;;;;;;;;;;11.50;99.90;;;;;;5037074;28;19925;-63
2021/01/28 16:31:47;;;;;;;;;;;11.40;99.90;;;;;;5037358;28;19932;-62
2021/01/28 16:34:13;;;;;;;;;;;11.50;99.90;;;;;;5036398;28;19925;-62
2021/01/28 16:36:40;;;;;;;;;;;11.50;99.90;;;;;;5036424;28;20292;-62
2021/01/28 16:39:07;;;;;;;;;;;11.50;99.90;;;;;;5036294;28;19929;-60
2021/01/28 16:41:35;;;;;;;;;;;11.50;99.90;;;;;;5036725;28;19925;-60
2021/01/28 16:44:02;;;;;;;;;;;11.50;99.90;;;;;;5036853;28;19975;-61
2021/01/28 16:46:29;;;;;;;;;;;11.50;99.90;;;;;;5037604;28;19932;-61
2021/01/28 16:48:55;;;;;;;;;;;11.50;99.90;;;;;;5036251;28;19932;-61
2021/01/28 16:51:21;;;;;;;;;;;11.50;99.90;;;;;;5035607;28;19932;-61
2021/01/28 16:53:47;;;;;;;;;;;11.60;99.90;;;;;;5035860;28;19932;-62
2021/01/28 16:56:13;;;;;;;;;;;11.60;99.90;;;;;;5036737;28;19925;-62
2021/01/28 16:58:39;;;;;;;;;;;11.60;99.90;;;;;;5035793;28;19925;-63
2021/01/28 17:01:06;;;;;;;;;;;11.60;99.90;;;;;;5035799;28;19964;-63
2021/01/28 17:03:32;;;;;;;;;;;11.70;99.90;;;;;;5035322;28;19996;-63
2021/01/28 17:05:58;;;;;;;;;;;11.70;99.90;;;;;;5035497;28;19932;-62
2021/01/28 17:08:24;;;;;;;;;;;11.70;99.90;;;;;;5035312;28;19925;-62
2021/01/28 17:10:50;;;;;;;;;;;11.80;99.90;;;;;;5049148;23;19925;-63
2021/01/28 17:13:16;;;;;;;;;;;11.80;99.90;;;;;;5035391;28;19925;-62
2021/01/28 17:15:42;;;;;;;;;;;11.70;99.90;;;;;;5034862;28;19944;-63
2021/01/28 17:18:09;;;;;;;;;;;11.70;99.90;;;;;;5034743;28;19929;-63
2021/01/28 17:20:35;;;;;;;;;;;11.80;99.90;;;;;;5034751;28;19929;-63
2021/01/28 17:23:01;;;;;;;;;;;11.80;99.90;;;;;;5034342;28;19925;-64
2021/01/28 17:25:27;;;;;;;;;;;11.80;99.90;;;;;;5034249;28;19933;-63
2021/01/28 17:27:53;;;;;;;;;;;11.80;99.90;;;;;;5034161;28;19925;-63
2021/01/28 17:30:20;;;;;;;;;;;11.70;99.90;;;;;;5034429;28;19948;-63
2021/01/28 17:32:47;;;;;;;;;;;11.70;99.90;;;;;;5034104;28;20375;-63
2021/01/28 17:35:14;;;;;;;;;;;11.60;99.90;;;;;;5034691;28;20292;-63
2021/01/28 17:37:40;;;;;;;;;;;11.60;99.90;;;;;;5037344;28;19931;-63
2021/01/28 17:40:07;;;;;;;;;;;11.60;99.90;;;;;;5038202;28;19929;-64
2021/01/28 17:42:35;;;;;;;;;;;11.60;99.90;;;;;;5038670;28;19925;-63
2021/01/28 17:45:06;;;;;;;;;;;11.60;99.90;;;;;;5040812;28;19957;-63
2021/01/28 17:47:32;;;;;;;;;;;11.60;99.90;;;;;;5038326;28;19993;-65
2021/01/28 17:49:58;;;;;;;;;;;11.60;99.90;;;;;;5037765;28;19925;-65
2021/01/28 17:52:25;;;;;;;;;;;11.60;99.90;;;;;;5040145;28;20399;-63
2021/01/28 17:54:51;;;;;;;;;;;11.60;99.90;;;;;;5037732;28;19932;-63
2021/01/28 17:57:17;;;;;;;;;;;11.60;99.90;;;;;;5037970;28;19925;-64
2021/01/28 17:59:43;;;;;;;;;;;11.60;99.90;;;;;;5037712;28;19967;-64
2021/01/28 18:02:09;;;;;;;;;;;11.60;99.90;;;;;;5038272;28;19929;-66
2021/01/28 18:04:35;;;;;;;;;;;11.60;99.90;;;;;;5038207;28;19924;-63
2021/01/28 18:07:02;;;;;;;;;;;11.60;99.90;;;;;;5037573;28;19925;-65
2021/01/28 18:09:28;;;;;;;;;;;11.60;99.90;;;;;;5037599;28;20300;-64
2021/01/28 18:11:56;;;;;;;;;;;11.60;99.90;;;;;;5037111;28;19929;-64
2021/01/28 18:14:22;;;;;;;;;;;11.60;99.90;;;;;;5037742;28;19932;-64
2021/01/28 18:16:48;;;;;;;;;;;11.60;99.90;;;;;;5037446;28;19929;-64
2021/01/28 18:19:14;;;;;;;;;;;11.70;99.90;;;;;;5037251;28;19932;-65
2021/01/28 18:21:43;;;;;;;;;;;11.70;99.90;;;;;;5037281;28;19932;-65
2021/01/28 18:24:09;;;;;;;;;;;11.70;99.90;;;;;;5037002;28;20333;-64
2021/01/28 18:26:36;;;;;;;;;;;11.70;99.90;;;;;;5037125;28;20339;-63
2021/01/28 18:29:02;;;;;;;;;;;11.70;99.90;;;;;;5037312;28;19995;-63
2021/01/28 18:31:28;;;;;;;;;;;11.70;99.90;;;;;;5037132;28;19929;-62
2021/01/28 18:33:54;;;;;;;;;;;11.80;99.90;;;;;;5038033;28;20438;-66
2021/01/28 18:36:21;;;;;;;;;;;11.70;99.90;;;;;;5036710;28;20261;-63
2021/01/28 18:38:47;;;;;;;;;;;11.80;99.90;;;;;;5036742;28;19933;-63
2021/01/28 18:41:13;;;;;;;;;;;11.80;99.90;;;;;;5036583;28;19933;-64
2021/01/28 18:43:41;;;;;;;;;;;11.70;99.90;;;;;;5036957;28;19929;-65
2021/01/28 18:46:08;;;;;;;;;;;11.70;99.90;;;;;;5036928;28;20022;-64
2021/01/28 18:48:34;;;;;;;;;;;11.70;99.90;;;;;;5036391;28;20392;-65
2021/01/28 18:51:01;;;;;;;;;;;11.70;99.90;;;;;;5036490;28;20396;-65
2021/01/28 18:53:27;;;;;;;;;;;11.70;99.90;;;;;;5036771;28;19932;-64
2021/01/28 18:55:53;;;;;;;;;;;11.70;99.90;;;;;;5039866;28;19932;-64
2021/01/28 18:58:20;;;;;;;;;;;11.70;99.90;;;;;;5037262;28;20433;-64
2021/01/28 19:00:49;;;;;;;;;;;11.70;99.90;;;;;;5036495;28;19925;-63
2021/01/28 19:03:15;;;;;;;;;;;11.70;99.90;;;;;;5036414;28;20375;-64
2021/01/28 19:05:41;;;;;;;;;;;11.80;99.90;;;;;;5036181;28;20403;-64
2021/01/28 19:08:07;;;;;;;;;;;11.80;99.90;;;;;;5036771;28;20350;-65
2021/01/28 19:10:33;;;;;;;;;;;11.80;99.90;;;;;;5036303;28;19932;-64
2021/01/28 19:13:01;;;;;;;;;;;11.90;99.90;;;;;;5035966;28;20421;-63
2021/01/28 19:15:28;;;;;;;;;;;11.90;99.90;;;;;;5036665;28;19925;-63
2021/01/28 19:17:55;;;;;;;;;;;11.90;99.90;;;;;;5037050;28;19948;-65
2021/01/28 19:20:22;;;;;;;;;;;11.80;99.90;;;;;;5036963;28;19932;-64
2021/01/28 19:22:48;;;;;;;;;;;11.80;99.90;;;;;;5036423;28;19995;-64
2021/01/28 19:25:15;;;;;;;;;;;11.80;99.90;;;;;;5036138;28;19926;-66
2021/01/28 19:27:43;;;;;;;;;;;11.90;99.90;;;;;;5035850;28;20303;-63
2021/01/28 19:30:10;;;;;;;;;;;11.80;99.90;;;;;;5035511;28;20384;-64